Time;durP1;ratioP1;P1;durP2;ratioP2;P2;SDS_P1;SDS_P2;PMS_P1;PMS_P2;Temp;Humidity;BMP_temperature;BMP_pressure;BME280_temperature;BME280_humidity;BME280_pressure;Samples;Min_cycle;Max_cycle;Signal;HPM_P1;HPM_P2
2023/07/28 00:02:01;;;;;;;18.77;17.42;;;21.80;99.90;;;;;;6217094;23;20369;-74
2023/07/28 00:04:28;;;;;;;18.45;17.40;;;21.80;99.90;;;;;;6216921;23;20031;-75
2023/07/28 00:06:54;;;;;;;18.83;17.63;;;21.90;99.90;;;;;;6216840;23;20449;-75
2023/07/28 00:09:22;;;;;;;19.33;18.20;;;21.90;99.90;;;;;;6217000;23;20423;-75
2023/07/28 00:11:50;;;;;;;19.17;17.92;;;21.90;99.90;;;;;;6215502;23;20032;-75
2023/07/28 00:14:16;;;;;;;19.17;17.80;;;21.90;99.90;;;;;;6217213;23;20001;-79
2023/07/28 00:16:42;;;;;;;19.10;17.90;;;21.90;99.90;;;;;;6217267;23;20028;-82
2023/07/28 00:19:09;;;;;;;18.65;17.35;;;21.80;99.90;;;;;;6241137;23;20057;-83
2023/07/28 00:21:35;;;;;;;19.10;17.75;;;21.60;99.90;;;;;;6241192;23;20005;-83
2023/07/28 00:25:53;;;;;;;18.70;17.50;;;21.50;99.90;;;;;;5111136;27;20706;-74
2023/07/28 00:28:19;;;;;;;18.50;17.40;;;21.50;99.90;;;;;;5110851;28;20024;-73
2023/07/28 00:30:50;;;;;;;19.30;18.10;;;21.50;99.90;;;;;;5110775;28;20388;-73
2023/07/28 00:33:23;;;;;;;19.00;17.50;;;21.40;99.90;;;;;;5110745;28;20024;-72
2023/07/28 00:35:49;;;;;;;19.67;18.27;;;21.30;99.90;;;;;;5109596;28;20107;-73
2023/07/28 00:38:15;;;;;;;19.00;17.80;;;21.30;99.90;;;;;;5110813;28;20023;-72
2023/07/28 00:40:42;;;;;;;19.05;17.52;;;21.30;99.90;;;;;;5110824;28;20101;-83
2023/07/28 00:43:08;;;;;;;18.67;17.42;;;21.30;99.90;;;;;;5106893;28;20027;-86
2023/07/28 00:45:36;;;;;;;18.83;17.52;;;21.30;99.90;;;;;;5093392;28;20032;-86
2023/07/28 00:48:13;;;;;;;18.60;17.30;;;21.20;99.90;;;;;;5093505;28;20016;-88
2023/07/28 00:50:46;;;;;;;18.67;17.27;;;21.10;99.90;;;;;;5093971;28;20077;-89
2023/07/28 00:53:12;;;;;;;18.25;17.13;;;21.10;99.90;;;;;;5093584;28;20058;-88
2023/07/28 00:55:41;;;;;;;18.80;17.60;;;21.10;99.90;;;;;;5093471;28;20024;-89
2023/07/28 00:58:08;;;;;;;18.45;17.08;;;21.10;99.90;;;;;;5093434;28;20053;-90
2023/07/28 01:00:36;;;;;;;18.65;17.55;;;21.10;99.90;;;;;;5118879;22;20050;-90
2023/07/28 01:03:03;;;;;;;19.10;17.80;;;21.20;99.90;;;;;;5010070;28;20116;-92
2023/07/28 01:05:43;;;;;;;19.05;17.75;;;21.20;99.90;;;;;;5012590;28;20078;-90
2023/07/28 01:08:27;;;;;;;19.15;17.88;;;21.20;99.90;;;;;;5014241;28;20105;-91
2023/07/28 01:10:54;;;;;;;19.58;18.20;;;21.20;99.90;;;;;;4994070;28;20034;-92
2023/07/28 01:13:21;;;;;;;19.25;17.70;;;21.20;99.90;;;;;;5015149;28;20070;-90
2023/07/28 01:15:47;;;;;;;18.27;17.08;;;21.20;99.90;;;;;;5026471;28;20081;-91
2023/07/28 01:18:15;;;;;;;18.80;17.70;;;21.20;99.90;;;;;;5026368;28;20522;-91
2023/07/28 01:20:47;;;;;;;18.17;17.15;;;21.10;99.90;;;;;;5026268;28;20030;-90
2023/07/28 01:23:30;;;;;;;19.13;17.98;;;21.10;99.90;;;;;;5026401;28;20108;-91
2023/07/28 01:26:11;;;;;;;18.42;17.38;;;21.10;99.90;;;;;;5006687;28;20046;-90
2023/07/28 01:28:41;;;;;;;18.80;17.58;;;21.00;99.90;;;;;;5006570;28;20030;-90
2023/07/28 01:31:10;;;;;;;18.38;17.10;;;21.00;99.90;;;;;;5006563;28;20065;-92
2023/07/28 01:33:37;;;;;;;18.85;17.58;;;21.00;99.90;;;;;;5021333;28;20084;-91
2023/07/28 01:36:06;;;;;;;18.48;17.38;;;21.00;99.90;;;;;;5018891;28;20052;-91
2023/07/28 01:38:33;;;;;;;18.60;17.40;;;21.00;99.90;;;;;;5012886;28;20033;-90
2023/07/28 01:40:59;;;;;;;18.38;17.17;;;21.00;99.90;;;;;;5002551;28;20054;-92
2023/07/28 01:43:26;;;;;;;18.27;17.17;;;20.90;99.90;;;;;;4996291;28;20480;-90
2023/07/28 01:45:52;;;;;;;18.58;17.45;;;20.90;99.90;;;;;;4980218;28;20027;-90
2023/07/28 01:48:19;;;;;;;18.63;17.63;;;20.90;99.90;;;;;;4996364;28;20173;-93
2023/07/28 01:50:45;;;;;;;18.05;16.85;;;20.80;99.90;;;;;;4980352;28;20483;-92
2023/07/28 01:53:12;;;;;;;18.38;17.35;;;20.80;99.90;;;;;;4996257;28;20117;-90
2023/07/28 01:55:38;;;;;;;18.20;17.13;;;20.80;99.90;;;;;;4996159;28;20124;-92
2023/07/28 01:58:05;;;;;;;18.42;17.38;;;20.90;99.90;;;;;;4996244;28;20069;-91
2023/07/28 02:00:31;;;;;;;18.08;16.95;;;20.90;99.90;;;;;;5012177;28;20058;-91
2023/07/28 02:03:01;;;;;;;17.83;16.88;;;20.90;99.90;;;;;;4995911;28;20027;-92
2023/07/28 02:05:28;;;;;;;18.05;16.95;;;20.80;99.90;;;;;;4993176;28;20038;-91
2023/07/28 02:07:56;;;;;;;18.13;17.02;;;20.80;99.90;;;;;;5012381;28;20033;-89
2023/07/28 02:10:23;;;;;;;19.05;17.42;;;20.80;99.90;;;;;;4993684;28;20027;-90
2023/07/28 02:12:51;;;;;;;18.38;17.15;;;20.80;99.90;;;;;;5007928;28;20475;-93
2023/07/28 02:15:18;;;;;;;18.40;17.33;;;20.80;99.90;;;;;;4979652;28;20031;-92
2023/07/28 02:17:47;;;;;;;18.25;16.90;;;20.80;99.90;;;;;;4995996;28;20031;-93
2023/07/28 02:20:15;;;;;;;17.70;16.70;;;20.80;99.90;;;;;;4979562;28;20026;-92
2023/07/28 02:22:44;;;;;;;18.67;17.48;;;20.80;99.90;;;;;;4996411;28;20027;-91
2023/07/28 02:25:11;;;;;;;17.98;16.98;;;20.80;99.90;;;;;;4992269;28;20069;-92
2023/07/28 02:27:39;;;;;;;18.25;17.20;;;20.70;99.90;;;;;;4995587;28;20109;-93
2023/07/28 02:30:06;;;;;;;18.85;17.58;;;20.70;99.90;;;;;;5012127;28;20053;-92
2023/07/28 02:32:33;;;;;;;18.15;17.02;;;20.70;99.90;;;;;;4999670;28;20027;-93
2023/07/28 02:35:00;;;;;;;18.58;17.40;;;20.70;99.90;;;;;;4992234;28;20035;-92
2023/07/28 02:37:27;;;;;;;18.27;17.17;;;20.70;99.90;;;;;;4992249;28;20027;-92
2023/07/28 02:39:53;;;;;;;17.92;16.77;;;20.60;99.90;;;;;;4992159;28;20159;-92
2023/07/28 02:42:19;;;;;;;19.25;17.58;;;20.60;99.90;;;;;;4991891;28;20543;-91
2023/07/28 02:44:46;;;;;;;19.13;17.25;;;20.60;99.90;;;;;;4990268;28;20030;-93
2023/07/28 02:47:13;;;;;;;17.98;16.95;;;20.60;99.90;;;;;;4994457;28;20026;-92
2023/07/28 02:49:43;;;;;;;18.23;17.00;;;20.60;99.90;;;;;;4979172;28;20026;-91
2023/07/28 02:52:10;;;;;;;19.00;17.33;;;20.70;99.90;;;;;;4995074;28;20553;-91
2023/07/28 02:54:36;;;;;;;18.83;17.38;;;20.60;99.90;;;;;;5011338;28;20038;-93
2023/07/28 02:57:02;;;;;;;18.83;17.67;;;20.60;99.90;;;;;;4995097;28;20026;-92
2023/07/28 02:59:29;;;;;;;18.60;17.42;;;20.60;99.90;;;;;;5001466;28;20025;-91
2023/07/28 03:01:57;;;;;;;17.52;16.60;;;20.50;99.90;;;;;;4981672;28;20465;-92
2023/07/28 03:04:24;;;;;;;17.45;16.52;;;20.50;99.90;;;;;;4994853;28;20046;-91
2023/07/28 03:07:08;;;;;;;18.52;17.20;;;20.50;99.90;;;;;;5009214;28;20125;-94
2023/07/28 03:09:37;;;;;;;18.00;16.88;;;20.40;99.90;;;;;;4995000;28;20034;-91
2023/07/28 03:12:05;;;;;;;17.88;16.75;;;20.40;99.90;;;;;;5011031;28;20033;-92
2023/07/28 03:14:32;;;;;;;18.65;17.55;;;20.40;99.90;;;;;;5011018;28;20027;-92
2023/07/28 03:16:59;;;;;;;18.50;17.40;;;20.40;99.90;;;;;;4998738;28;20030;-94
2023/07/28 03:19:25;;;;;;;18.05;17.05;;;20.40;99.90;;;;;;4993145;28;20027;-93
2023/07/28 03:21:53;;;;;;;18.50;17.30;;;20.30;99.90;;;;;;4975133;28;20038;-94
2023/07/28 03:24:19;;;;;;;18.42;17.42;;;20.30;99.90;;;;;;4975098;28;20046;-92
2023/07/28 03:26:46;;;;;;;19.20;17.52;;;20.30;99.90;;;;;;4975013;28;20134;-91
2023/07/28 03:29:12;;;;;;;18.55;17.45;;;20.40;99.90;;;;;;4975408;28;20081;-94
2023/07/28 03:31:39;;;;;;;17.98;16.80;;;20.40;99.90;;;;;;4984915;28;20023;-94
2023/07/28 03:34:06;;;;;;;18.40;17.15;;;20.40;99.90;;;;;;4975011;28;20042;-91
2023/07/28 03:36:32;;;;;;;18.30;17.20;;;20.30;99.90;;;;;;4993448;28;20022;-91
2023/07/28 03:38:59;;;;;;;18.45;17.30;;;20.30;99.90;;;;;;4994446;28;20058;-91
2023/07/28 03:41:26;;;;;;;18.40;17.23;;;20.30;99.90;;;;;;4978192;28;20563;-91
2023/07/28 03:43:53;;;;;;;18.33;17.23;;;20.40;99.90;;;;;;5007158;28;20034;-94
2023/07/28 03:46:20;;;;;;;18.00;17.00;;;20.40;99.90;;;;;;5002552;28;20479;-92
2023/07/28 03:48:46;;;;;;;18.83;17.63;;;20.40;99.90;;;;;;4995535;28;20034;-94
2023/07/28 03:51:13;;;;;;;18.73;17.52;;;20.30;99.90;;;;;;4994321;28;20031;-94
2023/07/28 03:53:39;;;;;;;18.60;17.50;;;20.30;99.90;;;;;;4998480;28;20031;-92
2023/07/28 03:56:06;;;;;;;19.13;17.75;;;20.30;99.90;;;;;;5009537;28;20026;-91
2023/07/28 03:58:32;;;;;;;18.58;17.48;;;20.30;99.90;;;;;;4993771;28;20113;-93
2023/07/28 04:00:58;;;;;;;18.67;17.58;;;20.40;99.90;;;;;;4982179;28;20054;-92
2023/07/28 04:03:25;;;;;;;19.05;17.63;;;20.40;99.90;;;;;;5010395;28;20023;-92
2023/07/28 04:05:55;;;;;;;18.30;17.20;;;20.40;99.90;;;;;;5010113;28;20042;-93
2023/07/28 04:08:21;;;;;;;17.85;16.85;;;20.50;99.90;;;;;;5010248;28;20032;-92
2023/07/28 04:10:47;;;;;;;18.33;17.23;;;20.50;99.90;;;;;;5010324;28;20030;-92
2023/07/28 04:13:14;;;;;;;18.90;17.50;;;20.50;99.90;;;;;;5010026;28;20146;-93
2023/07/28 04:15:40;;;;;;;18.70;17.50;;;20.60;99.90;;;;;;5010193;28;20030;-92
2023/07/28 04:18:07;;;;;;;19.42;17.95;;;20.70;99.90;;;;;;5010313;28;20065;-91
2023/07/28 04:20:36;;;;;;;18.60;17.10;;;20.70;99.90;;;;;;4993822;28;20419;-91
2023/07/28 04:23:03;;;;;;;18.77;17.48;;;20.70;99.90;;;;;;5010299;28;20026;-92
2023/07/28 04:25:35;;;;;;;18.40;17.30;;;20.80;99.90;;;;;;5009776;28;20042;-93
2023/07/28 04:28:01;;;;;;;19.92;17.95;;;20.80;99.90;;;;;;5009996;28;20090;-92
2023/07/28 04:30:27;;;;;;;18.33;17.13;;;20.90;99.90;;;;;;5002605;28;20026;-91
2023/07/28 04:32:54;;;;;;;18.85;17.75;;;20.90;99.90;;;;;;4998636;28;20076;-94
2023/07/28 04:35:25;;;;;;;19.58;18.13;;;20.90;99.90;;;;;;4990350;28;20122;-91
2023/07/28 04:38:02;;;;;;;19.15;17.85;;;20.90;99.90;;;;;;4990500;28;20114;-93
2023/07/28 04:40:40;;;;;;;18.52;17.48;;;21.00;99.90;;;;;;5005019;28;20038;-92
2023/07/28 04:43:07;;;;;;;19.23;17.92;;;21.00;99.90;;;;;;4974155;28;20062;-92
2023/07/28 04:45:33;;;;;;;19.70;18.35;;;21.10;99.90;;;;;;4973876;28;20043;-92
2023/07/28 04:48:11;;;;;;;19.70;18.33;;;21.20;99.90;;;;;;4989988;28;20027;-92
2023/07/28 04:50:38;;;;;;;20.25;18.90;;;21.40;99.90;;;;;;5009931;28;20097;-92
2023/07/28 04:53:24;;;;;;;21.27;19.67;;;21.70;99.90;;;;;;4987129;28;20040;-92
2023/07/28 04:56:03;;;;;;;23.60;21.33;;;22.50;99.90;;;;;;5009692;28;20125;-92
2023/07/28 04:58:30;;;;;;;23.65;21.50;;;23.40;99.90;;;;;;5009745;28;20093;-92
2023/07/28 05:01:01;;;;;;;24.35;22.45;;;24.30;99.90;;;;;;5009375;28;20129;-92
2023/07/28 05:03:29;;;;;;;24.10;22.30;;;25.60;99.90;;;;;;4993666;28;20030;-93
2023/07/28 05:06:06;;;;;;;25.13;23.17;;;26.80;99.90;;;;;;4993465;28;20041;-93
2023/07/28 05:08:33;;;;;;;26.85;24.23;;;27.70;99.90;;;;;;4993564;28;20560;-91
2023/07/28 05:11:00;;;;;;;26.25;24.25;;;28.40;99.90;;;;;;4994159;28;20031;-94
2023/07/28 05:13:30;;;;;;;25.42;23.65;;;29.10;99.90;;;;;;5009609;28;20121;-94
2023/07/28 05:15:57;;;;;;;26.45;24.45;;;30.20;99.90;;;;;;4997180;28;20045;-94
2023/07/28 05:18:55;;;;;;;26.92;25.00;;;31.00;99.90;;;;;;4967976;28;20491;-92
2023/07/28 05:21:42;;;;;;;27.05;24.83;;;31.50;99.90;;;;;;5002016;28;20045;-92
2023/07/28 05:24:12;;;;;;;29.05;26.05;;;31.40;99.90;;;;;;4983597;28;20038;-92
2023/07/28 05:26:38;;;;;;;28.05;25.50;;;31.50;99.90;;;;;;5013007;28;20038;-91
2023/07/28 05:29:05;;;;;;;28.60;26.35;;;31.60;99.90;;;;;;4999857;28;20121;-95
2023/07/28 05:31:31;;;;;;;37.72;27.30;;;32.60;99.90;;;;;;5008651;28;20034;-93
2023/07/28 05:33:59;;;;;;;29.42;26.85;;;32.60;99.90;;;;;;5012841;28;20033;-91
2023/07/28 05:36:25;;;;;;;28.42;26.35;;;32.40;99.90;;;;;;5012900;28;20031;-93
2023/07/28 05:38:58;;;;;;;28.42;25.55;;;33.30;99.90;;;;;;5012894;28;20077;-94
2023/07/28 05:41:30;;;;;;;28.05;26.15;;;33.20;99.90;;;;;;5013106;28;20034;-91
2023/07/28 05:43:57;;;;;;;27.65;25.65;;;34.40;99.90;;;;;;5012717;28;20044;-92
2023/07/28 05:46:24;;;;;;;27.95;25.42;;;33.60;99.90;;;;;;5012654;28;20034;-91
2023/07/28 05:48:55;;;;;;;27.35;25.20;;;33.40;99.90;;;;;;5000082;28;20078;-91
2023/07/28 05:51:22;;;;;;;27.52;25.00;;;33.50;99.90;;;;;;4993058;28;20436;-92
2023/07/28 05:53:50;;;;;;;26.58;24.80;;;33.50;99.90;;;;;;4993009;28;20023;-90
2023/07/28 05:56:19;;;;;;;27.83;24.88;;;34.10;99.90;;;;;;4996278;28;20026;-93
2023/07/28 05:58:47;;;;;;;27.85;25.60;;;34.20;99.90;;;;;;4996475;28;20491;-89
2023/07/28 06:01:13;;;;;;;27.70;25.35;;;34.80;99.90;;;;;;5012167;28;20054;-91
2023/07/28 06:04:00;;;;;;;32.95;26.23;;;35.20;99.90;;;;;;4970277;28;20047;-91
2023/07/28 06:06:28;;;;;;;27.42;25.35;;;35.80;99.90;;;;;;4992471;28;20029;-90
2023/07/28 06:08:55;;;;;;;27.08;24.98;;;34.90;99.90;;;;;;4976469;28;20070;-90
2023/07/28 06:11:21;;;;;;;27.50;25.05;;;34.80;99.90;;;;;;4976505;28;20019;-95
2023/07/28 06:13:48;;;;;;;27.67;25.10;;;34.20;99.90;;;;;;4992742;28;20492;-93
2023/07/28 06:16:15;;;;;;;25.92;23.75;;;34.10;99.90;;;;;;4976352;28;20035;-89
2023/07/28 06:18:42;;;;;;;24.77;23.23;;;34.50;99.90;;;;;;4993110;28;20469;-89
2023/07/28 06:21:14;;;;;;;25.40;23.65;;;34.20;99.90;;;;;;4976340;28;20125;-94
2023/07/28 06:23:40;;;;;;;25.50;23.95;;;33.60;99.90;;;;;;4992402;28;20058;-93
2023/07/28 06:26:06;;;;;;;24.50;23.20;;;33.30;99.90;;;;;;4977459;28;20027;-92
2023/07/28 06:28:33;;;;;;;25.20;23.48;;;33.00;99.90;;;;;;4995630;28;20502;-91
2023/07/28 06:31:00;;;;;;;25.48;23.75;;;33.10;99.90;;;;;;4998638;28;20034;-93
2023/07/28 06:33:29;;;;;;;25.58;24.13;;;32.90;99.90;;;;;;5006946;28;20023;-93
2023/07/28 06:35:55;;;;;;;25.60;24.02;;;33.00;99.90;;;;;;4992196;28;20093;-92
2023/07/28 06:38:23;;;;;;;26.05;24.15;;;32.70;99.90;;;;;;4998996;28;20030;-93
2023/07/28 06:40:49;;;;;;;26.42;24.48;;;33.20;99.90;;;;;;5011553;28;20045;-91
2023/07/28 06:43:18;;;;;;;26.10;24.20;;;33.50;99.90;;;;;;5030732;28;20053;-90
2023/07/28 06:45:50;;;;;;;24.83;23.40;;;33.60;99.90;;;;;;4998602;28;20038;-92
2023/07/28 06:48:17;;;;;;;25.52;23.77;;;33.50;99.90;;;;;;5014557;28;20049;-93
2023/07/28 06:50:43;;;;;;;26.08;24.48;;;33.40;99.90;;;;;;4997555;28;20519;-94
2023/07/28 06:53:10;;;;;;;26.08;24.38;;;32.80;99.90;;;;;;5013742;28;20048;-94
2023/07/28 06:55:38;;;;;;;25.52;24.15;;;32.70;99.90;;;;;;4997948;28;20045;-94
2023/07/28 06:58:06;;;;;;;26.00;24.40;;;33.50;99.90;;;;;;5012762;28;20070;-93
2023/07/28 07:00:33;;;;;;;25.98;24.48;;;33.50;99.90;;;;;;5013654;28;20045;-93
2023/07/28 07:03:01;;;;;;;25.60;24.10;;;32.80;99.90;;;;;;5013874;28;20034;-91
2023/07/28 07:05:27;;;;;;;25.02;23.52;;;33.20;99.90;;;;;;5013955;28;20077;-90
2023/07/28 07:07:54;;;;;;;25.80;24.17;;;33.50;99.90;;;;;;4999008;28;20402;-93
2023/07/28 07:10:21;;;;;;;25.10;23.80;;;33.00;99.90;;;;;;5001690;28;20066;-92
2023/07/28 07:13:01;;;;;;;25.35;23.88;;;33.70;99.90;;;;;;4985942;28;20030;-94
2023/07/28 13:15:46;;;;;;;23.67;22.33;;;31.50;97.30;;;;;;5324920;23;20051;-95
2023/07/28 13:18:20;;;;;;;23.98;22.58;;;31.60;98.70;;;;;;4935435;29;20056;-92
2023/07/28 13:20:47;;;;;;;23.52;22.23;;;31.50;99.10;;;;;;4924207;29;20039;-91
2023/07/28 13:23:13;;;;;;;25.23;23.63;;;31.60;99.40;;;;;;4922055;29;20020;-92
2023/07/28 13:25:40;;;;;;;24.35;22.75;;;31.30;98.70;;;;;;4911807;29;20512;-91
2023/07/28 13:28:06;;;;;;;24.25;22.95;;;31.30;98.80;;;;;;4914102;29;20024;-90
2023/07/28 13:30:35;;;;;;;24.45;23.15;;;31.20;99.50;;;;;;4907427;29;20043;-89
2023/07/28 13:33:03;;;;;;;24.50;23.20;;;31.00;99.00;;;;;;4913969;29;20028;-89
2023/07/28 13:35:29;;;;;;;24.50;23.20;;;30.90;98.30;;;;;;4913233;29;20116;-92
2023/07/28 13:37:59;;;;;;;24.95;23.30;;;31.10;98.10;;;;;;4915482;29;20028;-89
2023/07/28 13:40:26;;;;;;;24.40;23.00;;;31.20;98.90;;;;;;4918587;29;20055;-92
2023/07/28 13:42:55;;;;;;;24.20;22.75;;;31.00;98.90;;;;;;4894083;29;20052;-91
2023/07/28 13:45:21;;;;;;;24.58;23.27;;;31.10;99.90;;;;;;4913970;29;20525;-91
2023/07/28 13:47:48;;;;;;;24.80;23.40;;;31.00;99.90;;;;;;4906020;29;20072;-91
2023/07/28 13:50:14;;;;;;;24.65;23.25;;;30.80;99.80;;;;;;4916125;29;20060;-88
2023/07/28 13:52:40;;;;;;;24.10;22.90;;;30.90;99.50;;;;;;4925637;29;20040;-91
2023/07/28 13:55:10;;;;;;;25.30;23.52;;;31.10;98.50;;;;;;4916637;29;20068;-91
2023/07/28 13:57:36;;;;;;;24.52;23.33;;;31.20;98.00;;;;;;4926594;29;20084;-91
2023/07/28 14:00:03;;;;;;;24.38;22.98;;;31.20;98.60;;;;;;4919919;29;20028;-92
2023/07/28 14:02:31;;;;;;;24.70;23.20;;;31.10;99.20;;;;;;4918518;29;20084;-92
2023/07/28 14:04:57;;;;;;;24.52;23.33;;;30.90;99.20;;;;;;4919414;29;20540;-92
2023/07/28 14:07:24;;;;;;;24.38;23.05;;;31.00;99.30;;;;;;4912308;29;20033;-92
2023/07/28 14:09:50;;;;;;;24.60;23.13;;;31.10;98.80;;;;;;4909923;29;20502;-92
2023/07/28 14:12:18;;;;;;;24.77;23.27;;;31.30;98.80;;;;;;4914957;29;20119;-93
2023/07/28 14:14:47;;;;;;;24.10;22.80;;;31.60;98.60;;;;;;4942699;29;20044;-94
2023/07/28 14:17:13;;;;;;;24.10;22.65;;;31.40;98.30;;;;;;4938453;29;20055;-94
2023/07/28 14:19:40;;;;;;;23.98;22.67;;;31.40;98.50;;;;;;4928156;29;20036;-94
2023/07/28 14:22:06;;;;;;;23.85;22.55;;;31.30;98.50;;;;;;4927100;29;20032;-90
2023/07/28 14:24:33;;;;;;;24.00;22.67;;;31.50;98.50;;;;;;4928511;29;20036;-92
2023/07/28 14:26:59;;;;;;;23.70;22.30;;;31.50;98.30;;;;;;4911260;29;20040;-91
2023/07/28 14:29:26;;;;;;;23.67;22.38;;;31.60;98.20;;;;;;4901252;29;20060;-92
2023/07/28 14:31:53;;;;;;;24.08;22.45;;;31.50;98.10;;;;;;4908821;29;20028;-93
2023/07/28 14:34:19;;;;;;;23.92;22.55;;;31.60;97.90;;;;;;4917845;29;20122;-90
2023/07/28 14:36:46;;;;;;;23.67;22.48;;;31.40;98.00;;;;;;4926920;29;20039;-93
2023/07/28 14:39:12;;;;;;;24.50;23.10;;;31.50;98.10;;;;;;4923853;29;20035;-90
2023/07/28 14:41:41;;;;;;;25.75;24.20;;;31.30;98.40;;;;;;4922965;29;20045;-89
2023/07/28 14:44:09;;;;;;;24.45;23.15;;;31.50;98.80;;;;;;4915555;29;20501;-89
2023/07/28 14:46:44;;;;;;;24.38;23.08;;;31.30;98.70;;;;;;4926057;29;20121;-91
2023/07/28 22:53:20;;;;;;;14.77;13.77;;;22.60;99.90;;;;;;5549206;23;20468;-92
2023/07/28 22:55:47;;;;;;;14.15;13.25;;;22.50;99.90;;;;;;4901711;29;20047;-93
2023/07/28 22:58:13;;;;;;;14.30;13.38;;;22.50;99.90;;;;;;4889461;29;20080;-92
2023/07/28 23:00:40;;;;;;;15.43;14.30;;;22.50;99.90;;;;;;4911042;29;20055;-91
2023/07/28 23:03:07;;;;;;;14.40;13.40;;;22.50;99.90;;;;;;4905476;29;20017;-90
2023/07/28 23:05:36;;;;;;;14.60;13.50;;;22.50;99.90;;;;;;4908808;29;20028;-92
2023/07/28 23:08:03;;;;;;;15.05;13.95;;;22.50;99.90;;;;;;4889227;29;20406;-91
2023/07/28 23:10:29;;;;;;;14.52;13.52;;;22.40;99.90;;;;;;4914674;29;20024;-91
2023/07/28 23:12:56;;;;;;;16.08;14.35;;;22.40;99.90;;;;;;4894946;29;20033;-92
2023/07/28 23:15:22;;;;;;;14.85;13.70;;;22.50;99.90;;;;;;4883626;29;20410;-91
2023/07/28 23:17:49;;;;;;;15.30;13.88;;;22.50;99.90;;;;;;4883424;29;20028;-91
2023/07/28 23:20:15;;;;;;;15.95;14.40;;;22.50;99.90;;;;;;4899523;29;20509;-93
2023/07/28 23:22:42;;;;;;;14.80;13.55;;;22.40;99.90;;;;;;4908470;29;20153;-93
2023/07/28 23:25:09;;;;;;;14.70;13.70;;;22.40;99.90;;;;;;4902090;29;20556;-93
2023/07/28 23:27:36;;;;;;;15.00;13.85;;;22.40;99.90;;;;;;4901704;29;20076;-91
2023/07/28 23:30:03;;;;;;;16.23;14.57;;;22.40;99.90;;;;;;4901991;29;20111;-91
2023/07/28 23:32:30;;;;;;;15.52;14.20;;;22.30;99.90;;;;;;4901880;29;20032;-91
2023/07/28 23:34:56;;;;;;;15.75;14.35;;;22.20;99.90;;;;;;4897808;29;20039;-91
2023/07/28 23:37:23;;;;;;;16.25;14.70;;;22.20;99.90;;;;;;4902083;29;20470;-91
2023/07/28 23:39:50;;;;;;;15.05;13.75;;;22.20;99.90;;;;;;4902379;29;20028;-92
2023/07/28 23:42:17;;;;;;;14.95;13.63;;;22.20;99.90;;;;;;4901840;29;20024;-92
2023/07/28 23:44:43;;;;;;;14.77;13.57;;;22.20;99.90;;;;;;4901470;29;20048;-92
2023/07/28 23:47:10;;;;;;;14.88;13.60;;;22.20;99.90;;;;;;4882918;29;20037;-93
2023/07/28 23:49:36;;;;;;;14.68;13.55;;;22.20;99.90;;;;;;4898327;29;20025;-91
2023/07/28 23:52:03;;;;;;;14.55;13.45;;;22.10;99.90;;;;;;4910749;29;20127;-92
2023/07/28 23:54:30;;;;;;;14.35;13.25;;;22.10;99.90;;;;;;4901092;29;20101;-93
2023/07/28 23:56:56;;;;;;;14.40;13.30;;;22.10;99.90;;;;;;4901406;29;20070;-92
2023/07/28 23:59:22;;;;;;;14.55;13.45;;;22.20;99.90;;;;;;4896453;29;20020;-92
